South Hiram, Maine
Current Conditions -  °F | °C
As of 12:54 AM on Friday 28 Nov 2014 (Local Time) from KIZG Reporting Station
Overcast Overcast  
Wind Chill: -4°   Ceiling: 4300
Heat Index: -4°   Visibility: 10mi
Dew Point: -6°   Wind: 0mph
Humidity: 85%   Direction: NA
Pressure: 30"   Gusts: NA
Location:  43.8772°N, 70.8351°W
Report Text: KIZG 280554Z AUTO 00000KT 10SM OVC043 M04/M06 A3000 RMK AO2 SLP165 T10391061 11017 21044 58009
Loading
Personal Weather Stations






























Interactive Weather Map New forecast layout! Learn more

10-Day Weather Forecast

Advertisements
Track Severe Weather on mobile